sensor_id;sensor_type;location;lat;lon;timestamp;P1;durP1;ratioP1;P2;durP2;ratioP2
16254;SDS011;8235;52.198;9.904;2024-02-21T00:01:36;12.57;;;9.13;;
16254;SDS011;8235;52.198;9.904;2024-02-21T00:04:02;19.67;;;10.10;;
16254;SDS011;8235;52.198;9.904;2024-02-21T00:06:29;13.50;;;8.90;;
16254;SDS011;8235;52.198;9.904;2024-02-21T00:08:57;15.67;;;9.13;;
16254;SDS011;8235;52.198;9.904;2024-02-21T00:11:23;16.17;;;8.90;;
16254;SDS011;8235;52.198;9.904;2024-02-21T00:13:50;17.00;;;8.00;;
16254;SDS011;8235;52.198;9.904;2024-02-21T00:16:16;16.03;;;8.90;;
16254;SDS011;8235;52.198;9.904;2024-02-21T00:18:43;17.13;;;8.87;;
16254;SDS011;8235;52.198;9.904;2024-02-21T00:21:09;17.07;;;8.23;;
16254;SDS011;8235;52.198;9.904;2024-02-21T00:23:40;20.63;;;10.60;;
16254;SDS011;8235;52.198;9.904;2024-02-21T00:26:07;24.00;;;10.57;;
16254;SDS011;8235;52.198;9.904;2024-02-21T00:28:34;19.23;;;10.03;;
16254;SDS011;8235;52.198;9.904;2024-02-21T00:31:00;23.93;;;10.23;;
16254;SDS011;8235;52.198;9.904;2024-02-21T00:33:27;18.57;;;9.17;;
16254;SDS011;8235;52.198;9.904;2024-02-21T00:35:53;16.73;;;8.63;;
16254;SDS011;8235;52.198;9.904;2024-02-21T00:38:20;20.17;;;10.33;;
16254;SDS011;8235;52.198;9.904;2024-02-21T00:40:46;24.17;;;10.63;;
16254;SDS011;8235;52.198;9.904;2024-02-21T00:43:14;18.37;;;10.00;;
16254;SDS011;8235;52.198;9.904;2024-02-21T00:45:40;19.90;;;10.83;;
16254;SDS011;8235;52.198;9.904;2024-02-21T00:48:07;24.00;;;12.00;;
16254;SDS011;8235;52.198;9.904;2024-02-21T00:50:33;24.10;;;9.37;;
16254;SDS011;8235;52.198;9.904;2024-02-21T00:53:00;20.33;;;10.07;;
16254;SDS011;8235;52.198;9.904;2024-02-21T00:55:26;20.67;;;10.73;;
16254;SDS011;8235;52.198;9.904;2024-02-21T00:57:53;18.77;;;10.47;;
16254;SDS011;8235;52.198;9.904;2024-02-21T01:00:21;19.87;;;10.03;;
16254;SDS011;8235;52.198;9.904;2024-02-21T01:02:47;22.03;;;10.33;;
16254;SDS011;8235;52.198;9.904;2024-02-21T01:05:14;21.63;;;9.87;;
16254;SDS011;8235;52.198;9.904;2024-02-21T01:07:40;20.97;;;10.40;;
16254;SDS011;8235;52.198;9.904;2024-02-21T01:10:07;20.87;;;10.97;;
16254;SDS011;8235;52.198;9.904;2024-02-21T01:12:34;24.23;;;11.10;;
16254;SDS011;8235;52.198;9.904;2024-02-21T01:15:00;17.43;;;9.80;;
16254;SDS011;8235;52.198;9.904;2024-02-21T01:17:28;21.47;;;9.90;;
16254;SDS011;8235;52.198;9.904;2024-02-21T01:19:55;23.83;;;9.97;;
16254;SDS011;8235;52.198;9.904;2024-02-21T01:22:21;20.73;;;10.87;;
16254;SDS011;8235;52.198;9.904;2024-02-21T01:24:48;15.97;;;9.70;;
16254;SDS011;8235;52.198;9.904;2024-02-21T01:27:14;16.90;;;9.90;;
16254;SDS011;8235;52.198;9.904;2024-02-21T01:29:41;20.37;;;10.33;;
16254;SDS011;8235;52.198;9.904;2024-02-21T01:32:08;17.97;;;9.23;;
16254;SDS011;8235;52.198;9.904;2024-02-21T01:34:35;15.77;;;9.60;;
16254;SDS011;8235;52.198;9.904;2024-02-21T01:37:02;19.33;;;10.37;;
16254;SDS011;8235;52.198;9.904;2024-02-21T01:39:29;21.83;;;9.83;;
16254;SDS011;8235;52.198;9.904;2024-02-21T01:41:56;19.13;;;10.70;;
16254;SDS011;8235;52.198;9.904;2024-02-21T01:44:23;20.50;;;10.77;;
16254;SDS011;8235;52.198;9.904;2024-02-21T01:46:49;22.10;;;10.00;;
16254;SDS011;8235;52.198;9.904;2024-02-21T01:49:16;23.93;;;10.33;;
16254;SDS011;8235;52.198;9.904;2024-02-21T01:51:44;19.73;;;10.93;;
16254;SDS011;8235;52.198;9.904;2024-02-21T01:54:11;16.57;;;9.77;;
16254;SDS011;8235;52.198;9.904;2024-02-21T01:56:40;23.83;;;10.67;;
16254;SDS011;8235;52.198;9.904;2024-02-21T01:59:07;27.00;;;12.10;;
16254;SDS011;8235;52.198;9.904;2024-02-21T02:01:34;25.07;;;11.00;;
16254;SDS011;8235;52.198;9.904;2024-02-21T02:04:01;26.83;;;10.53;;
16254;SDS011;8235;52.198;9.904;2024-02-21T02:06:30;21.00;;;11.70;;
16254;SDS011;8235;52.198;9.904;2024-02-21T02:08:58;18.03;;;10.77;;
16254;SDS011;8235;52.198;9.904;2024-02-21T02:11:24;21.53;;;10.70;;
16254;SDS011;8235;52.198;9.904;2024-02-21T02:13:51;21.70;;;10.97;;
16254;SDS011;8235;52.198;9.904;2024-02-21T02:16:17;21.50;;;11.60;;
16254;SDS011;8235;52.198;9.904;2024-02-21T02:18:44;16.10;;;10.67;;
16254;SDS011;8235;52.198;9.904;2024-02-21T02:21:11;21.57;;;11.30;;
16254;SDS011;8235;52.198;9.904;2024-02-21T02:23:49;23.53;;;11.40;;
16254;SDS011;8235;52.198;9.904;2024-02-21T02:26:15;18.97;;;11.10;;
16254;SDS011;8235;52.198;9.904;2024-02-21T02:28:42;20.17;;;11.67;;
16254;SDS011;8235;52.198;9.904;2024-02-21T02:31:08;24.30;;;12.30;;
16254;SDS011;8235;52.198;9.904;2024-02-21T02:33:35;19.87;;;11.83;;
16254;SDS011;8235;52.198;9.904;2024-02-21T02:36:01;28.33;;;13.50;;
16254;SDS011;8235;52.198;9.904;2024-02-21T02:38:28;20.93;;;12.00;;
16254;SDS011;8235;52.198;9.904;2024-02-21T02:40:55;29.47;;;16.30;;
16254;SDS011;8235;52.198;9.904;2024-02-21T02:43:22;26.43;;;15.10;;
16254;SDS011;8235;52.198;9.904;2024-02-21T02:45:48;24.37;;;12.77;;
16254;SDS011;8235;52.198;9.904;2024-02-21T02:48:15;22.80;;;12.10;;
16254;SDS011;8235;52.198;9.904;2024-02-21T02:50:41;20.77;;;11.57;;
16254;SDS011;8235;52.198;9.904;2024-02-21T02:53:08;21.50;;;11.03;;
16254;SDS011;8235;52.198;9.904;2024-02-21T02:55:34;16.47;;;11.90;;
16254;SDS011;8235;52.198;9.904;2024-02-21T02:58:02;24.60;;;13.43;;
16254;SDS011;8235;52.198;9.904;2024-02-21T03:00:29;19.63;;;12.17;;
16254;SDS011;8235;52.198;9.904;2024-02-21T03:02:56;20.97;;;11.67;;
16254;SDS011;8235;52.198;9.904;2024-02-21T03:05:22;21.73;;;12.03;;
16254;SDS011;8235;52.198;9.904;2024-02-21T03:07:49;23.33;;;12.43;;
16254;SDS011;8235;52.198;9.904;2024-02-21T03:10:15;20.00;;;11.33;;
16254;SDS011;8235;52.198;9.904;2024-02-21T03:12:42;24.77;;;12.70;;
16254;SDS011;8235;52.198;9.904;2024-02-21T03:15:10;22.23;;;11.97;;
16254;SDS011;8235;52.198;9.904;2024-02-21T03:17:37;22.87;;;11.83;;
16254;SDS011;8235;52.198;9.904;2024-02-21T03:20:04;19.90;;;11.63;;
16254;SDS011;8235;52.198;9.904;2024-02-21T03:22:33;20.40;;;12.57;;
16254;SDS011;8235;52.198;9.904;2024-02-21T03:25:00;20.20;;;12.07;;
16254;SDS011;8235;52.198;9.904;2024-02-21T03:27:26;23.73;;;12.33;;
16254;SDS011;8235;52.198;9.904;2024-02-21T03:29:53;21.47;;;12.90;;
16254;SDS011;8235;52.198;9.904;2024-02-21T03:32:21;21.70;;;12.37;;
16254;SDS011;8235;52.198;9.904;2024-02-21T03:34:47;22.13;;;11.87;;
16254;SDS011;8235;52.198;9.904;2024-02-21T03:37:14;20.23;;;11.90;;
16254;SDS011;8235;52.198;9.904;2024-02-21T03:39:40;22.60;;;11.63;;
16254;SDS011;8235;52.198;9.904;2024-02-21T03:42:07;20.27;;;11.80;;
16254;SDS011;8235;52.198;9.904;2024-02-21T03:44:34;19.27;;;11.33;;
16254;SDS011;8235;52.198;9.904;2024-02-21T03:47:00;18.43;;;11.00;;
16254;SDS011;8235;52.198;9.904;2024-02-21T03:49:28;20.17;;;11.27;;
16254;SDS011;8235;52.198;9.904;2024-02-21T03:51:55;21.17;;;12.63;;
16254;SDS011;8235;52.198;9.904;2024-02-21T03:54:21;17.90;;;10.67;;
16254;SDS011;8235;52.198;9.904;2024-02-21T03:56:48;22.97;;;12.03;;
16254;SDS011;8235;52.198;9.904;2024-02-21T03:59:14;20.07;;;12.43;;
16254;SDS011;8235;52.198;9.904;2024-02-21T04:01:41;19.80;;;11.13;;
16254;SDS011;8235;52.198;9.904;2024-02-21T04:04:08;19.87;;;11.87;;
16254;SDS011;8235;52.198;9.904;2024-02-21T04:06:35;18.10;;;10.67;;
16254;SDS011;8235;52.198;9.904;2024-02-21T04:09:02;17.40;;;10.43;;
16254;SDS011;8235;52.198;9.904;2024-02-21T04:11:29;17.57;;;11.57;;
16254;SDS011;8235;52.198;9.904;2024-02-21T04:13:56;21.83;;;11.73;;
16254;SDS011;8235;52.198;9.904;2024-02-21T04:16:22;21.50;;;11.13;;
16254;SDS011;8235;52.198;9.904;2024-02-21T04:18:49;16.90;;;11.10;;
16254;SDS011;8235;52.198;9.904;2024-02-21T04:21:15;19.83;;;11.10;;
16254;SDS011;8235;52.198;9.904;2024-02-21T04:23:44;18.77;;;11.70;;
16254;SDS011;8235;52.198;9.904;2024-02-21T04:26:10;16.53;;;10.87;;
16254;SDS011;8235;52.198;9.904;2024-02-21T04:28:37;18.53;;;10.83;;
16254;SDS011;8235;52.198;9.904;2024-02-21T04:31:03;21.50;;;11.77;;
16254;SDS011;8235;52.198;9.904;2024-02-21T04:33:30;20.03;;;10.80;;
16254;SDS011;8235;52.198;9.904;2024-02-21T04:35:56;16.73;;;11.00;;
16254;SDS011;8235;52.198;9.904;2024-02-21T04:38:23;19.63;;;10.17;;
16254;SDS011;8235;52.198;9.904;2024-02-21T04:40:51;15.80;;;9.63;;
16254;SDS011;8235;52.198;9.904;2024-02-21T04:43:18;23.13;;;11.30;;
16254;SDS011;8235;52.198;9.904;2024-02-21T04:45:44;19.30;;;10.57;;
16254;SDS011;8235;52.198;9.904;2024-02-21T04:48:10;18.03;;;10.40;;
16254;SDS011;8235;52.198;9.904;2024-02-21T04:50:37;18.37;;;11.50;;
16254;SDS011;8235;52.198;9.904;2024-02-21T04:53:03;21.20;;;11.30;;
16254;SDS011;8235;52.198;9.904;2024-02-21T04:55:30;17.10;;;10.53;;
16254;SDS011;8235;52.198;9.904;2024-02-21T04:57:57;18.13;;;10.40;;
16254;SDS011;8235;52.198;9.904;2024-02-21T05:00:25;18.50;;;11.53;;
16254;SDS011;8235;52.198;9.904;2024-02-21T05:02:52;22.73;;;10.23;;
16254;SDS011;8235;52.198;9.904;2024-02-21T05:05:18;14.33;;;10.07;;
16254;SDS011;8235;52.198;9.904;2024-02-21T05:07:45;19.73;;;11.10;;
16254;SDS011;8235;52.198;9.904;2024-02-21T05:10:11;16.57;;;10.57;;
16254;SDS011;8235;52.198;9.904;2024-02-21T05:12:38;20.00;;;11.60;;
16254;SDS011;8235;52.198;9.904;2024-02-21T05:15:06;15.43;;;9.90;;
16254;SDS011;8235;52.198;9.904;2024-02-21T05:17:33;14.60;;;10.30;;
16254;SDS011;8235;52.198;9.904;2024-02-21T05:19:59;19.00;;;10.50;;
16254;SDS011;8235;52.198;9.904;2024-02-21T05:22:26;17.47;;;10.67;;
16254;SDS011;8235;52.198;9.904;2024-02-21T05:24:52;20.57;;;10.77;;
16254;SDS011;8235;52.198;9.904;2024-02-21T05:27:19;14.37;;;11.90;;
16254;SDS011;8235;52.198;9.904;2024-02-21T05:29:46;18.83;;;11.50;;
16254;SDS011;8235;52.198;9.904;2024-02-21T05:32:14;19.73;;;9.87;;
16254;SDS011;8235;52.198;9.904;2024-02-21T05:34:41;19.57;;;10.67;;
16254;SDS011;8235;52.198;9.904;2024-02-21T05:37:07;18.50;;;11.23;;
16254;SDS011;8235;52.198;9.904;2024-02-21T05:39:34;16.43;;;11.20;;
16254;SDS011;8235;52.198;9.904;2024-02-21T05:42:00;17.77;;;10.80;;
16254;SDS011;8235;52.198;9.904;2024-02-21T05:44:27;23.87;;;12.93;;
16254;SDS011;8235;52.198;9.904;2024-02-21T05:46:53;18.57;;;11.07;;
16254;SDS011;8235;52.198;9.904;2024-02-21T05:49:21;19.90;;;10.93;;
16254;SDS011;8235;52.198;9.904;2024-02-21T05:51:48;17.83;;;10.50;;
16254;SDS011;8235;52.198;9.904;2024-02-21T05:54:15;19.97;;;10.33;;
16254;SDS011;8235;52.198;9.904;2024-02-21T05:56:43;20.00;;;10.67;;
16254;SDS011;8235;52.198;9.904;2024-02-21T05:59:10;17.93;;;10.70;;
16254;SDS011;8235;52.198;9.904;2024-02-21T06:01:37;16.43;;;10.23;;
16254;SDS011;8235;52.198;9.904;2024-02-21T06:04:03;20.00;;;10.73;;
16254;SDS011;8235;52.198;9.904;2024-02-21T06:06:31;16.97;;;10.47;;
16254;SDS011;8235;52.198;9.904;2024-02-21T06:08:58;14.23;;;10.03;;
16254;SDS011;8235;52.198;9.904;2024-02-21T06:11:25;18.07;;;11.20;;
16254;SDS011;8235;52.198;9.904;2024-02-21T06:13:51;17.00;;;10.70;;
16254;SDS011;8235;52.198;9.904;2024-02-21T06:16:18;17.10;;;10.00;;
16254;SDS011;8235;52.198;9.904;2024-02-21T06:18:44;17.17;;;9.83;;
16254;SDS011;8235;52.198;9.904;2024-02-21T06:21:11;15.07;;;9.83;;
16254;SDS011;8235;52.198;9.904;2024-02-21T06:23:39;15.40;;;10.03;;
16254;SDS011;8235;52.198;9.904;2024-02-21T06:26:05;14.40;;;9.60;;
16254;SDS011;8235;52.198;9.904;2024-02-21T06:28:31;19.37;;;9.97;;
16254;SDS011;8235;52.198;9.904;2024-02-21T06:30:58;16.17;;;10.20;;
16254;SDS011;8235;52.198;9.904;2024-02-21T06:33:24;15.73;;;10.30;;
16254;SDS011;8235;52.198;9.904;2024-02-21T06:35:51;19.60;;;10.47;;
16254;SDS011;8235;52.198;9.904;2024-02-21T06:38:18;16.97;;;10.27;;
16254;SDS011;8235;52.198;9.904;2024-02-21T06:40:46;13.93;;;10.23;;
16254;SDS011;8235;52.198;9.904;2024-02-21T06:43:17;12.90;;;8.53;;
16254;SDS011;8235;52.198;9.904;2024-02-21T06:45:44;13.80;;;10.53;;
16254;SDS011;8235;52.198;9.904;2024-02-21T06:48:15;15.40;;;9.43;;
16254;SDS011;8235;52.198;9.904;2024-02-21T06:50:42;19.23;;;11.50;;
16254;SDS011;8235;52.198;9.904;2024-02-21T06:53:09;15.43;;;10.03;;
16254;SDS011;8235;52.198;9.904;2024-02-21T06:55:35;12.90;;;9.67;;
16254;SDS011;8235;52.198;9.904;2024-02-21T06:58:03;19.70;;;10.23;;
16254;SDS011;8235;52.198;9.904;2024-02-21T07:00:29;16.27;;;10.47;;
16254;SDS011;8235;52.198;9.904;2024-02-21T07:02:56;13.97;;;9.03;;
16254;SDS011;8235;52.198;9.904;2024-02-21T07:05:23;13.77;;;9.00;;
16254;SDS011;8235;52.198;9.904;2024-02-21T07:07:49;17.30;;;9.87;;
16254;SDS011;8235;52.198;9.904;2024-02-21T07:10:16;12.53;;;8.67;;
16254;SDS011;8235;52.198;9.904;2024-02-21T07:12:42;13.77;;;9.10;;
16254;SDS011;8235;52.198;9.904;2024-02-21T07:15:10;14.93;;;9.30;;
16254;SDS011;8235;52.198;9.904;2024-02-21T07:17:37;25.73;;;15.37;;
16254;SDS011;8235;52.198;9.904;2024-02-21T07:20:03;16.73;;;10.00;;
16254;SDS011;8235;52.198;9.904;2024-02-21T07:22:30;20.07;;;9.10;;
16254;SDS011;8235;52.198;9.904;2024-02-21T07:24:57;12.23;;;9.07;;
16254;SDS011;8235;52.198;9.904;2024-02-21T07:27:23;15.40;;;9.77;;
16254;SDS011;8235;52.198;9.904;2024-02-21T07:29:53;14.40;;;8.70;;
16254;SDS011;8235;52.198;9.904;2024-02-21T07:32:20;12.13;;;8.33;;
16254;SDS011;8235;52.198;9.904;2024-02-21T07:34:47;13.47;;;8.30;;
16254;SDS011;8235;52.198;9.904;2024-02-21T07:37:13;16.33;;;8.30;;
16254;SDS011;8235;52.198;9.904;2024-02-21T07:39:40;16.47;;;8.30;;
16254;SDS011;8235;52.198;9.904;2024-02-21T07:42:07;10.87;;;8.47;;
16254;SDS011;8235;52.198;9.904;2024-02-21T07:44:33;18.37;;;8.77;;
16254;SDS011;8235;52.198;9.904;2024-02-21T07:47:00;15.83;;;9.37;;
16254;SDS011;8235;52.198;9.904;2024-02-21T07:49:28;17.67;;;9.77;;
16254;SDS011;8235;52.198;9.904;2024-02-21T07:51:55;16.97;;;9.97;;
16254;SDS011;8235;52.198;9.904;2024-02-21T07:54:21;15.53;;;9.40;;
16254;SDS011;8235;52.198;9.904;2024-02-21T07:56:48;16.67;;;9.13;;
16254;SDS011;8235;52.198;9.904;2024-02-21T07:59:14;15.47;;;9.60;;
16254;SDS011;8235;52.198;9.904;2024-02-21T08:01:40;17.57;;;9.83;;
16254;SDS011;8235;52.198;9.904;2024-02-21T08:04:07;20.50;;;9.77;;
16254;SDS011;8235;52.198;9.904;2024-02-21T08:06:35;17.10;;;9.37;;
16254;SDS011;8235;52.198;9.904;2024-02-21T08:09:01;17.07;;;10.70;;
16254;SDS011;8235;52.198;9.904;2024-02-21T08:11:28;14.23;;;9.43;;
16254;SDS011;8235;52.198;9.904;2024-02-21T08:13:54;16.33;;;9.23;;
16254;SDS011;8235;52.198;9.904;2024-02-21T08:16:22;12.23;;;8.93;;
16254;SDS011;8235;52.198;9.904;2024-02-21T08:18:48;14.53;;;9.67;;
16254;SDS011;8235;52.198;9.904;2024-02-21T08:21:15;15.53;;;8.53;;
16254;SDS011;8235;52.198;9.904;2024-02-21T08:23:43;21.90;;;10.83;;
16254;SDS011;8235;52.198;9.904;2024-02-21T08:26:09;17.70;;;10.10;;
16254;SDS011;8235;52.198;9.904;2024-02-21T08:28:36;14.30;;;9.40;;
16254;SDS011;8235;52.198;9.904;2024-02-21T08:31:03;18.60;;;9.17;;
16254;SDS011;8235;52.198;9.904;2024-02-21T08:33:29;13.73;;;8.23;;
16254;SDS011;8235;52.198;9.904;2024-02-21T08:35:56;14.03;;;7.50;;
16254;SDS011;8235;52.198;9.904;2024-02-21T08:38:22;12.10;;;7.37;;
16254;SDS011;8235;52.198;9.904;2024-02-21T08:40:51;13.73;;;8.63;;
16254;SDS011;8235;52.198;9.904;2024-02-21T08:43:17;13.67;;;8.40;;
16254;SDS011;8235;52.198;9.904;2024-02-21T08:45:44;12.10;;;7.53;;
16254;SDS011;8235;52.198;9.904;2024-02-21T08:48:10;11.87;;;6.87;;
16254;SDS011;8235;52.198;9.904;2024-02-21T08:50:37;11.60;;;6.80;;
16254;SDS011;8235;52.198;9.904;2024-02-21T08:53:03;12.97;;;6.23;;
16254;SDS011;8235;52.198;9.904;2024-02-21T08:55:30;11.70;;;6.37;;
16254;SDS011;8235;52.198;9.904;2024-02-21T08:57:58;11.00;;;6.03;;
16254;SDS011;8235;52.198;9.904;2024-02-21T09:00:24;11.80;;;6.37;;
16254;SDS011;8235;52.198;9.904;2024-02-21T09:02:52;11.10;;;6.07;;
16254;SDS011;8235;52.198;9.904;2024-02-21T09:05:20;10.50;;;5.60;;
16254;SDS011;8235;52.198;9.904;2024-02-21T09:07:47;10.03;;;5.80;;
16254;SDS011;8235;52.198;9.904;2024-02-21T09:10:13;13.03;;;6.23;;
16254;SDS011;8235;52.198;9.904;2024-02-21T09:12:40;8.07;;;5.40;;
16254;SDS011;8235;52.198;9.904;2024-02-21T09:15:08;9.90;;;5.57;;
16254;SDS011;8235;52.198;9.904;2024-02-21T09:17:35;10.63;;;5.67;;
16254;SDS011;8235;52.198;9.904;2024-02-21T09:20:02;11.60;;;6.00;;
16254;SDS011;8235;52.198;9.904;2024-02-21T09:22:29;11.80;;;5.57;;
16254;SDS011;8235;52.198;9.904;2024-02-21T09:24:56;8.50;;;5.50;;
16254;SDS011;8235;52.198;9.904;2024-02-21T09:27:23;8.73;;;4.73;;
16254;SDS011;8235;52.198;9.904;2024-02-21T09:29:49;7.73;;;4.87;;
16254;SDS011;8235;52.198;9.904;2024-02-21T09:32:17;8.77;;;5.03;;
16254;SDS011;8235;52.198;9.904;2024-02-21T09:34:44;6.40;;;4.60;;
16254;SDS011;8235;52.198;9.904;2024-02-21T09:37:10;8.20;;;4.40;;
16254;SDS011;8235;52.198;9.904;2024-02-21T09:39:37;8.33;;;4.73;;
16254;SDS011;8235;52.198;9.904;2024-02-21T09:42:05;6.50;;;4.27;;
16254;SDS011;8235;52.198;9.904;2024-02-21T09:44:33;6.80;;;4.23;;
16254;SDS011;8235;52.198;9.904;2024-02-21T09:47:04;10.20;;;4.13;;
16254;SDS011;8235;52.198;9.904;2024-02-21T09:49:38;9.33;;;5.20;;
16254;SDS011;8235;52.198;9.904;2024-02-21T09:52:07;7.47;;;4.03;;
16254;SDS011;8235;52.198;9.904;2024-02-21T09:54:33;6.63;;;4.53;;
16254;SDS011;8235;52.198;9.904;2024-02-21T09:57:01;8.33;;;4.30;;
16254;SDS011;8235;52.198;9.904;2024-02-21T09:59:28;10.53;;;3.80;;
16254;SDS011;8235;52.198;9.904;2024-02-21T10:01:57;8.03;;;3.53;;
16254;SDS011;8235;52.198;9.904;2024-02-21T10:04:25;8.60;;;3.63;;
16254;SDS011;8235;52.198;9.904;2024-02-21T10:06:54;8.67;;;3.50;;
16254;SDS011;8235;52.198;9.904;2024-02-21T10:09:21;9.10;;;3.70;;
16254;SDS011;8235;52.198;9.904;2024-02-21T10:11:48;8.67;;;3.77;;
16254;SDS011;8235;52.198;9.904;2024-02-21T10:14:15;9.00;;;3.40;;
16254;SDS011;8235;52.198;9.904;2024-02-21T10:16:42;6.70;;;3.03;;
16254;SDS011;8235;52.198;9.904;2024-02-21T10:19:15;7.60;;;3.30;;
16254;SDS011;8235;52.198;9.904;2024-02-21T10:21:42;5.27;;;3.00;;
16254;SDS011;8235;52.198;9.904;2024-02-21T10:24:11;6.33;;;3.37;;
16254;SDS011;8235;52.198;9.904;2024-02-21T10:26:38;5.07;;;2.47;;
16254;SDS011;8235;52.198;9.904;2024-02-21T10:29:04;8.70;;;3.57;;
16254;SDS011;8235;52.198;9.904;2024-02-21T10:31:31;6.17;;;4.67;;
16254;SDS011;8235;52.198;9.904;2024-02-21T10:33:58;8.10;;;4.87;;
16254;SDS011;8235;52.198;9.904;2024-02-21T10:36:28;7.07;;;3.97;;
16254;SDS011;8235;52.198;9.904;2024-02-21T10:38:55;6.60;;;3.07;;
16254;SDS011;8235;52.198;9.904;2024-02-21T10:41:23;6.70;;;3.10;;
16254;SDS011;8235;52.198;9.904;2024-02-21T10:43:52;7.10;;;3.60;;
16254;SDS011;8235;52.198;9.904;2024-02-21T10:46:20;6.10;;;2.50;;
16254;SDS011;8235;52.198;9.904;2024-02-21T10:48:48;3.87;;;2.03;;
16254;SDS011;8235;52.198;9.904;2024-02-21T10:51:28;5.93;;;2.30;;
16254;SDS011;8235;52.198;9.904;2024-02-21T10:54:02;3.17;;;2.37;;
16254;SDS011;8235;52.198;9.904;2024-02-21T10:56:40;3.50;;;1.90;;
16254;SDS011;8235;52.198;9.904;2024-02-21T10:59:08;4.53;;;2.23;;
16254;SDS011;8235;52.198;9.904;2024-02-21T11:01:34;6.53;;;3.23;;
16254;SDS011;8235;52.198;9.904;2024-02-21T11:04:02;3.97;;;2.07;;
16254;SDS011;8235;52.198;9.904;2024-02-21T11:06:30;6.27;;;2.40;;
16254;SDS011;8235;52.198;9.904;2024-02-21T11:08:59;5.53;;;2.23;;
16254;SDS011;8235;52.198;9.904;2024-02-21T11:11:27;4.77;;;2.23;;
16254;SDS011;8235;52.198;9.904;2024-02-21T11:14:04;3.87;;;2.00;;
16254;SDS011;8235;52.198;9.904;2024-02-21T11:16:35;3.73;;;1.73;;
16254;SDS011;8235;52.198;9.904;2024-02-21T11:19:09;4.27;;;1.90;;
16254;SDS011;8235;52.198;9.904;2024-02-21T11:21:36;5.07;;;2.43;;
16254;SDS011;8235;52.198;9.904;2024-02-21T11:24:04;4.37;;;1.97;;
16254;SDS011;8235;52.198;9.904;2024-02-21T11:26:32;2.67;;;1.90;;
16254;SDS011;8235;52.198;9.904;2024-02-21T11:28:59;6.73;;;2.10;;
16254;SDS011;8235;52.198;9.904;2024-02-21T11:31:37;3.37;;;2.10;;
16254;SDS011;8235;52.198;9.904;2024-02-21T11:34:04;3.93;;;2.30;;
16254;SDS011;8235;52.198;9.904;2024-02-21T11:36:31;3.63;;;2.30;;
16254;SDS011;8235;52.198;9.904;2024-02-21T11:39:02;4.67;;;2.20;;
16254;SDS011;8235;52.198;9.904;2024-02-21T11:41:30;4.07;;;2.07;;
16254;SDS011;8235;52.198;9.904;2024-02-21T11:43:57;3.33;;;1.70;;
16254;SDS011;8235;52.198;9.904;2024-02-21T11:46:23;3.67;;;2.10;;
16254;SDS011;8235;52.198;9.904;2024-02-21T11:48:51;5.37;;;2.37;;
16254;SDS011;8235;52.198;9.904;2024-02-21T11:51:21;7.10;;;3.37;;
16254;SDS011;8235;52.198;9.904;2024-02-21T11:53:49;3.70;;;3.20;;
16254;SDS011;8235;52.198;9.904;2024-02-21T11:56:17;5.40;;;3.50;;
16254;SDS011;8235;52.198;9.904;2024-02-21T11:58:44;6.27;;;3.70;;
16254;SDS011;8235;52.198;9.904;2024-02-21T12:01:11;6.93;;;3.90;;
16254;SDS011;8235;52.198;9.904;2024-02-21T12:03:38;6.80;;;3.73;;
16254;SDS011;8235;52.198;9.904;2024-02-21T12:06:07;7.57;;;5.13;;
16254;SDS011;8235;52.198;9.904;2024-02-21T12:08:40;7.40;;;5.70;;
16254;SDS011;8235;52.198;9.904;2024-02-21T12:11:15;11.13;;;6.23;;
16254;SDS011;8235;52.198;9.904;2024-02-21T12:13:42;7.97;;;5.40;;
16254;SDS011;8235;52.198;9.904;2024-02-21T12:16:09;10.27;;;6.97;;
16254;SDS011;8235;52.198;9.904;2024-02-21T12:18:35;8.97;;;5.90;;
16254;SDS011;8235;52.198;9.904;2024-02-21T12:21:02;8.17;;;5.83;;
16254;SDS011;8235;52.198;9.904;2024-02-21T12:23:31;10.10;;;6.53;;
16254;SDS011;8235;52.198;9.904;2024-02-21T12:25:58;9.20;;;6.23;;
16254;SDS011;8235;52.198;9.904;2024-02-21T12:28:25;11.10;;;6.00;;
16254;SDS011;8235;52.198;9.904;2024-02-21T12:30:51;11.60;;;6.63;;
16254;SDS011;8235;52.198;9.904;2024-02-21T12:33:18;10.67;;;6.50;;
16254;SDS011;8235;52.198;9.904;2024-02-21T12:35:45;12.03;;;6.57;;
16254;SDS011;8235;52.198;9.904;2024-02-21T12:38:11;13.83;;;7.53;;
16254;SDS011;8235;52.198;9.904;2024-02-21T12:40:40;10.40;;;7.33;;
16254;SDS011;8235;52.198;9.904;2024-02-21T12:43:06;10.67;;;6.97;;
16254;SDS011;8235;52.198;9.904;2024-02-21T12:45:33;10.97;;;6.40;;
16254;SDS011;8235;52.198;9.904;2024-02-21T12:47:59;9.13;;;6.57;;
16254;SDS011;8235;52.198;9.904;2024-02-21T12:50:26;7.90;;;5.87;;
16254;SDS011;8235;52.198;9.904;2024-02-21T12:52:52;9.53;;;6.37;;
16254;SDS011;8235;52.198;9.904;2024-02-21T12:55:19;8.93;;;6.10;;
16254;SDS011;8235;52.198;9.904;2024-02-21T12:57:46;8.90;;;5.60;;
16254;SDS011;8235;52.198;9.904;2024-02-21T13:00:14;8.67;;;5.80;;
16254;SDS011;8235;52.198;9.904;2024-02-21T13:02:41;7.40;;;6.10;;
16254;SDS011;8235;52.198;9.904;2024-02-21T13:05:07;7.57;;;5.40;;
16254;SDS011;8235;52.198;9.904;2024-02-21T13:07:34;6.23;;;5.10;;
16254;SDS011;8235;52.198;9.904;2024-02-21T13:10:01;7.93;;;5.40;;
16254;SDS011;8235;52.198;9.904;2024-02-21T13:12:28;8.50;;;5.33;;
16254;SDS011;8235;52.198;9.904;2024-02-21T13:14:56;6.87;;;4.70;;
16254;SDS011;8235;52.198;9.904;2024-02-21T13:17:23;5.77;;;4.40;;
16254;SDS011;8235;52.198;9.904;2024-02-21T13:19:55;5.63;;;3.93;;
16254;SDS011;8235;52.198;9.904;2024-02-21T13:22:21;5.93;;;4.03;;
16254;SDS011;8235;52.198;9.904;2024-02-21T13:24:50;7.37;;;3.90;;
16254;SDS011;8235;52.198;9.904;2024-02-21T13:27:17;7.80;;;4.17;;
16254;SDS011;8235;52.198;9.904;2024-02-21T13:29:43;6.10;;;3.10;;
16254;SDS011;8235;52.198;9.904;2024-02-21T13:32:11;6.03;;;3.23;;
16254;SDS011;8235;52.198;9.904;2024-02-21T13:34:39;6.00;;;3.43;;
16254;SDS011;8235;52.198;9.904;2024-02-21T13:37:05;4.80;;;2.97;;
16254;SDS011;8235;52.198;9.904;2024-02-21T13:39:34;5.27;;;3.40;;
16254;SDS011;8235;52.198;9.904;2024-02-21T13:42:01;5.83;;;3.10;;
16254;SDS011;8235;52.198;9.904;2024-02-21T13:44:30;5.80;;;2.90;;
16254;SDS011;8235;52.198;9.904;2024-02-21T13:46:57;4.53;;;2.20;;
16254;SDS011;8235;52.198;9.904;2024-02-21T13:49:24;5.90;;;2.90;;
16254;SDS011;8235;52.198;9.904;2024-02-21T13:51:51;7.30;;;3.80;;
16254;SDS011;8235;52.198;9.904;2024-02-21T13:54:17;5.93;;;2.37;;
16254;SDS011;8235;52.198;9.904;2024-02-21T13:56:44;4.90;;;2.57;;
16254;SDS011;8235;52.198;9.904;2024-02-21T13:59:11;3.70;;;2.03;;
16254;SDS011;8235;52.198;9.904;2024-02-21T14:01:38;4.97;;;2.50;;
16254;SDS011;8235;52.198;9.904;2024-02-21T14:04:04;5.07;;;2.57;;
16254;SDS011;8235;52.198;9.904;2024-02-21T14:06:33;4.90;;;2.30;;
16254;SDS011;8235;52.198;9.904;2024-02-21T14:09:00;4.17;;;2.70;;
16254;SDS011;8235;52.198;9.904;2024-02-21T14:11:27;5.27;;;2.50;;
16254;SDS011;8235;52.198;9.904;2024-02-21T14:13:55;6.30;;;2.13;;
16254;SDS011;8235;52.198;9.904;2024-02-21T14:16:22;6.63;;;2.47;;
16254;SDS011;8235;52.198;9.904;2024-02-21T14:18:48;4.47;;;2.33;;
16254;SDS011;8235;52.198;9.904;2024-02-21T14:21:15;4.67;;;2.10;;
16254;SDS011;8235;52.198;9.904;2024-02-21T14:23:43;5.10;;;2.20;;
16254;SDS011;8235;52.198;9.904;2024-02-21T14:26:09;4.13;;;2.60;;
16254;SDS011;8235;52.198;9.904;2024-02-21T14:28:37;5.70;;;2.10;;
16254;SDS011;8235;52.198;9.904;2024-02-21T14:31:03;6.43;;;2.47;;
16254;SDS011;8235;52.198;9.904;2024-02-21T14:33:32;3.30;;;2.27;;
16254;SDS011;8235;52.198;9.904;2024-02-21T14:35:58;4.97;;;2.27;;
16254;SDS011;8235;52.198;9.904;2024-02-21T14:38:25;5.87;;;2.30;;
16254;SDS011;8235;52.198;9.904;2024-02-21T14:40:53;5.40;;;2.23;;
16254;SDS011;8235;52.198;9.904;2024-02-21T14:43:20;3.60;;;1.83;;
16254;SDS011;8235;52.198;9.904;2024-02-21T14:45:47;3.77;;;2.00;;
16254;SDS011;8235;52.198;9.904;2024-02-21T14:48:14;6.10;;;3.17;;